sensor_id;sensor_type;location;lat;lon;timestamp;temperature;humidity
39919;DHT22;25589;51.552;13.424;2023-08-07T00:01:47;16.50;99.90
39919;DHT22;25589;51.552;13.424;2023-08-07T00:04:13;16.60;99.90
39919;DHT22;25589;51.552;13.424;2023-08-07T00:06:38;17.00;99.90
39919;DHT22;25589;51.552;13.424;2023-08-07T00:09:04;16.50;99.90
39919;DHT22;25589;51.552;13.424;2023-08-07T00:11:30;16.20;99.90
39919;DHT22;25589;51.552;13.424;2023-08-07T00:13:55;16.50;99.90
39919;DHT22;25589;51.552;13.424;2023-08-07T00:16:21;16.70;99.90
39919;DHT22;25589;51.552;13.424;2023-08-07T00:18:46;16.60;99.90
39919;DHT22;25589;51.552;13.424;2023-08-07T00:21:12;16.50;99.90
39919;DHT22;25589;51.552;13.424;2023-08-07T00:23:38;16.40;99.90
39919;DHT22;25589;51.552;13.424;2023-08-07T00:26:03;16.30;99.90
39919;DHT22;25589;51.552;13.424;2023-08-07T00:28:29;16.70;99.90
39919;DHT22;25589;51.552;13.424;2023-08-07T00:30:55;16.40;99.90
39919;DHT22;25589;51.552;13.424;2023-08-07T00:33:21;16.40;99.90
39919;DHT22;25589;51.552;13.424;2023-08-07T00:35:47;16.40;99.90
39919;DHT22;25589;51.552;13.424;2023-08-07T00:38:12;16.40;99.90
39919;DHT22;25589;51.552;13.424;2023-08-07T00:40:38;16.50;99.90
39919;DHT22;25589;51.552;13.424;2023-08-07T00:43:04;16.40;99.90
39919;DHT22;25589;51.552;13.424;2023-08-07T00:45:35;16.40;99.90
39919;DHT22;25589;51.552;13.424;2023-08-07T00:48:02;16.40;99.90
39919;DHT22;25589;51.552;13.424;2023-08-07T00:50:28;16.70;99.90
39919;DHT22;25589;51.552;13.424;2023-08-07T00:52:54;16.40;99.90
39919;DHT22;25589;51.552;13.424;2023-08-07T00:55:20;16.40;99.90
39919;DHT22;25589;51.552;13.424;2023-08-07T00:57:46;16.30;99.90
39919;DHT22;25589;51.552;13.424;2023-08-07T01:00:14;16.30;99.90
39919;DHT22;25589;51.552;13.424;2023-08-07T01:02:40;16.30;99.90
39919;DHT22;25589;51.552;13.424;2023-08-07T01:05:05;16.50;99.90
39919;DHT22;25589;51.552;13.424;2023-08-07T01:07:31;16.30;99.90
39919;DHT22;25589;51.552;13.424;2023-08-07T01:09:56;16.30;99.90
39919;DHT22;25589;51.552;13.424;2023-08-07T01:12:33;16.30;99.90
39919;DHT22;25589;51.552;13.424;2023-08-07T01:15:10;16.30;99.90
39919;DHT22;25589;51.552;13.424;2023-08-07T01:17:38;16.20;99.90
39919;DHT22;25589;51.552;13.424;2023-08-07T01:20:04;16.20;99.90
39919;DHT22;25589;51.552;13.424;2023-08-07T01:22:30;16.20;99.90
39919;DHT22;25589;51.552;13.424;2023-08-07T01:24:56;16.20;99.90
39919;DHT22;25589;51.552;13.424;2023-08-07T01:35:22;15.80;99.90
39919;DHT22;25589;51.552;13.424;2023-08-07T01:37:53;16.20;99.90
39919;DHT22;25589;51.552;13.424;2023-08-07T01:40:20;16.20;99.90
39919;DHT22;25589;51.552;13.424;2023-08-07T01:42:47;16.10;99.90
39919;DHT22;25589;51.552;13.424;2023-08-07T01:45:13;16.40;99.90
39919;DHT22;25589;51.552;13.424;2023-08-07T01:47:39;16.20;99.90
39919;DHT22;25589;51.552;13.424;2023-08-07T01:50:05;16.20;99.90
39919;DHT22;25589;51.552;13.424;2023-08-07T01:54:57;16.20;99.90
39919;DHT22;25589;51.552;13.424;2023-08-07T01:57:23;16.20;99.90
39919;DHT22;25589;51.552;13.424;2023-08-07T01:59:49;16.10;99.90
39919;DHT22;25589;51.552;13.424;2023-08-07T02:02:15;16.20;99.90
39919;DHT22;25589;51.552;13.424;2023-08-07T02:04:40;16.20;99.90
39919;DHT22;25589;51.552;13.424;2023-08-07T02:07:06;16.10;99.90
39919;DHT22;25589;51.552;13.424;2023-08-07T02:09:31;16.10;99.90
39919;DHT22;25589;51.552;13.424;2023-08-07T02:11:57;16.10;99.90
39919;DHT22;25589;51.552;13.424;2023-08-07T02:14:22;16.10;99.90
39919;DHT22;25589;51.552;13.424;2023-08-07T02:16:48;16.00;99.90
39919;DHT22;25589;51.552;13.424;2023-08-07T02:19:14;16.00;99.90
39919;DHT22;25589;51.552;13.424;2023-08-07T02:21:39;15.80;99.90
39919;DHT22;25589;51.552;13.424;2023-08-07T02:24:05;16.00;99.90
39919;DHT22;25589;51.552;13.424;2023-08-07T02:26:31;15.90;99.90
39919;DHT22;25589;51.552;13.424;2023-08-07T02:28:57;15.90;99.90
39919;DHT22;25589;51.552;13.424;2023-08-07T02:31:24;15.90;99.90
39919;DHT22;25589;51.552;13.424;2023-08-07T02:36:15;15.90;99.90
39919;DHT22;25589;51.552;13.424;2023-08-07T02:38:41;15.90;99.90
39919;DHT22;25589;51.552;13.424;2023-08-07T02:41:07;15.80;99.90
39919;DHT22;25589;51.552;13.424;2023-08-07T02:43:34;15.80;99.90
39919;DHT22;25589;51.552;13.424;2023-08-07T02:45:59;15.80;99.90
39919;DHT22;25589;51.552;13.424;2023-08-07T02:48:25;15.70;99.90
39919;DHT22;25589;51.552;13.424;2023-08-07T02:50:50;15.70;99.90
39919;DHT22;25589;51.552;13.424;2023-08-07T02:53:17;15.40;99.90
39919;DHT22;25589;51.552;13.424;2023-08-07T02:55:45;15.70;99.90
39919;DHT22;25589;51.552;13.424;2023-08-07T02:58:11;15.60;99.90
39919;DHT22;25589;51.552;13.424;2023-08-07T03:00:36;15.50;99.90
39919;DHT22;25589;51.552;13.424;2023-08-07T03:03:02;15.40;99.90
39919;DHT22;25589;51.552;13.424;2023-08-07T03:05:28;15.50;99.90
39919;DHT22;25589;51.552;13.424;2023-08-07T03:07:53;15.50;99.90
39919;DHT22;25589;51.552;13.424;2023-08-07T03:10:19;15.50;99.90
39919;DHT22;25589;51.552;13.424;2023-08-07T03:12:44;15.40;99.90
39919;DHT22;25589;51.552;13.424;2023-08-07T03:15:10;15.50;99.90
39919;DHT22;25589;51.552;13.424;2023-08-07T03:17:36;15.40;99.90
39919;DHT22;25589;51.552;13.424;2023-08-07T03:20:02;15.50;99.90
39919;DHT22;25589;51.552;13.424;2023-08-07T03:22:29;15.50;99.90
39919;DHT22;25589;51.552;13.424;2023-08-07T03:24:55;15.50;99.90
39919;DHT22;25589;51.552;13.424;2023-08-07T03:27:21;15.50;99.90
39919;DHT22;25589;51.552;13.424;2023-08-07T03:29:46;15.40;99.90
39919;DHT22;25589;51.552;13.424;2023-08-07T03:32:13;15.60;99.90
39919;DHT22;25589;51.552;13.424;2023-08-07T03:34:38;15.20;99.90
39919;DHT22;25589;51.552;13.424;2023-08-07T03:37:05;15.50;99.90
39919;DHT22;25589;51.552;13.424;2023-08-07T03:39:30;15.50;99.90
39919;DHT22;25589;51.552;13.424;2023-08-07T03:41:56;15.40;99.90
39919;DHT22;25589;51.552;13.424;2023-08-07T03:44:23;15.40;99.90
39919;DHT22;25589;51.552;13.424;2023-08-07T03:46:49;15.40;99.90
39919;DHT22;25589;51.552;13.424;2023-08-07T03:49:18;15.30;99.90
39919;DHT22;25589;51.552;13.424;2023-08-07T03:51:44;15.30;99.90
39919;DHT22;25589;51.552;13.424;2023-08-07T03:54:09;15.40;99.90
39919;DHT22;25589;51.552;13.424;2023-08-07T03:56:35;15.20;99.90
39919;DHT22;25589;51.552;13.424;2023-08-07T03:59:03;15.30;99.90
39919;DHT22;25589;51.552;13.424;2023-08-07T04:01:29;15.30;99.90
39919;DHT22;25589;51.552;13.424;2023-08-07T04:03:55;15.30;99.90
39919;DHT22;25589;51.552;13.424;2023-08-07T04:06:20;15.50;99.90
39919;DHT22;25589;51.552;13.424;2023-08-07T04:08:47;15.30;99.90
39919;DHT22;25589;51.552;13.424;2023-08-07T04:11:14;15.30;99.90
39919;DHT22;25589;51.552;13.424;2023-08-07T04:18:33;15.40;99.90
39919;DHT22;25589;51.552;13.424;2023-08-07T04:21:00;15.20;99.90
39919;DHT22;25589;51.552;13.424;2023-08-07T04:23:25;15.40;99.90
39919;DHT22;25589;51.552;13.424;2023-08-07T04:25:52;15.50;99.90
39919;DHT22;25589;51.552;13.424;2023-08-07T04:28:18;15.50;99.90
39919;DHT22;25589;51.552;13.424;2023-08-07T04:30:45;15.60;99.90
39919;DHT22;25589;51.552;13.424;2023-08-07T04:33:10;15.50;99.90
39919;DHT22;25589;51.552;13.424;2023-08-07T04:35:36;15.50;99.90
39919;DHT22;25589;51.552;13.424;2023-08-07T04:38:02;15.20;99.90
39919;DHT22;25589;51.552;13.424;2023-08-07T04:40:28;15.50;99.90
39919;DHT22;25589;51.552;13.424;2023-08-07T04:42:54;15.60;99.90
39919;DHT22;25589;51.552;13.424;2023-08-07T04:45:20;15.40;99.90
39919;DHT22;25589;51.552;13.424;2023-08-07T04:47:45;15.60;99.90
39919;DHT22;25589;51.552;13.424;2023-08-07T04:50:11;15.60;99.90
39919;DHT22;25589;51.552;13.424;2023-08-07T04:52:37;15.60;99.90
39919;DHT22;25589;51.552;13.424;2023-08-07T04:55:02;15.70;99.90
39919;DHT22;25589;51.552;13.424;2023-08-07T04:59:54;15.60;99.90
39919;DHT22;25589;51.552;13.424;2023-08-07T05:02:20;15.70;99.90
39919;DHT22;25589;51.552;13.424;2023-08-07T05:04:46;15.50;99.90
39919;DHT22;25589;51.552;13.424;2023-08-07T05:09:38;15.90;99.90
39919;DHT22;25589;51.552;13.424;2023-08-07T05:12:05;15.70;99.90
39919;DHT22;25589;51.552;13.424;2023-08-07T05:14:31;15.90;99.90
39919;DHT22;25589;51.552;13.424;2023-08-07T05:16:57;15.90;99.90
39919;DHT22;25589;51.552;13.424;2023-08-07T05:19:22;15.90;99.90
39919;DHT22;25589;51.552;13.424;2023-08-07T05:21:48;16.00;99.90
39919;DHT22;25589;51.552;13.424;2023-08-07T05:24:17;16.00;99.90
39919;DHT22;25589;51.552;13.424;2023-08-07T05:26:42;16.10;99.90
39919;DHT22;25589;51.552;13.424;2023-08-07T05:29:08;16.30;99.90
39919;DHT22;25589;51.552;13.424;2023-08-07T05:31:34;16.10;99.90
39919;DHT22;25589;51.552;13.424;2023-08-07T05:33:59;16.20;99.90
39919;DHT22;25589;51.552;13.424;2023-08-07T05:36:26;16.20;99.90
39919;DHT22;25589;51.552;13.424;2023-08-07T05:38:52;16.20;99.90
39919;DHT22;25589;51.552;13.424;2023-08-07T05:41:17;16.20;99.90
39919;DHT22;25589;51.552;13.424;2023-08-07T05:43:43;16.20;99.90
39919;DHT22;25589;51.552;13.424;2023-08-07T05:46:09;16.30;99.90
39919;DHT22;25589;51.552;13.424;2023-08-07T05:48:34;16.30;99.90
39919;DHT22;25589;51.552;13.424;2023-08-07T05:51:01;16.30;99.90
39919;DHT22;25589;51.552;13.424;2023-08-07T05:53:26;16.40;99.90
39919;DHT22;25589;51.552;13.424;2023-08-07T05:55:52;16.30;99.90
39919;DHT22;25589;51.552;13.424;2023-08-07T05:58:18;16.30;99.90
39919;DHT22;25589;51.552;13.424;2023-08-07T06:00:44;16.50;99.90
39919;DHT22;25589;51.552;13.424;2023-08-07T06:03:10;16.10;99.90
39919;DHT22;25589;51.552;13.424;2023-08-07T06:05:35;16.50;99.90
39919;DHT22;25589;51.552;13.424;2023-08-07T06:08:01;16.50;99.90
39919;DHT22;25589;51.552;13.424;2023-08-07T06:10:27;16.40;99.90
39919;DHT22;25589;51.552;13.424;2023-08-07T06:12:53;16.50;99.90
39919;DHT22;25589;51.552;13.424;2023-08-07T06:15:18;16.40;99.90
39919;DHT22;25589;51.552;13.424;2023-08-07T06:17:44;16.40;99.90
39919;DHT22;25589;51.552;13.424;2023-08-07T06:20:10;16.60;99.90
39919;DHT22;25589;51.552;13.424;2023-08-07T06:22:37;16.40;99.90
39919;DHT22;25589;51.552;13.424;2023-08-07T06:25:03;16.40;99.90
39919;DHT22;25589;51.552;13.424;2023-08-07T06:27:31;16.00;99.90
39919;DHT22;25589;51.552;13.424;2023-08-07T06:29:57;16.50;99.90
39919;DHT22;25589;51.552;13.424;2023-08-07T06:32:22;16.20;99.90
39919;DHT22;25589;51.552;13.424;2023-08-07T06:34:48;16.60;99.90
39919;DHT22;25589;51.552;13.424;2023-08-07T06:37:14;16.50;99.90
39919;DHT22;25589;51.552;13.424;2023-08-07T06:39:39;17.20;99.90
39919;DHT22;25589;51.552;13.424;2023-08-07T06:42:05;16.60;99.90
39919;DHT22;25589;51.552;13.424;2023-08-07T06:44:34;16.60;99.90
39919;DHT22;25589;51.552;13.424;2023-08-07T06:46:59;16.50;99.90
39919;DHT22;25589;51.552;13.424;2023-08-07T06:49:25;16.70;99.90
39919;DHT22;25589;51.552;13.424;2023-08-07T06:51:50;16.70;99.90
39919;DHT22;25589;51.552;13.424;2023-08-07T06:54:16;16.70;99.90
39919;DHT22;25589;51.552;13.424;2023-08-07T06:56:41;16.30;99.90
39919;DHT22;25589;51.552;13.424;2023-08-07T06:59:08;16.70;99.90
39919;DHT22;25589;51.552;13.424;2023-08-07T07:01:34;16.70;99.90
39919;DHT22;25589;51.552;13.424;2023-08-07T07:03:59;16.70;99.90
39919;DHT22;25589;51.552;13.424;2023-08-07T07:06:25;16.70;99.90
39919;DHT22;25589;51.552;13.424;2023-08-07T07:11:21;16.80;99.90
39919;DHT22;25589;51.552;13.424;2023-08-07T07:13:50;16.90;99.90
39919;DHT22;25589;51.552;13.424;2023-08-07T07:16:20;17.00;99.90
39919;DHT22;25589;51.552;13.424;2023-08-07T07:18:49;17.00;99.90
39919;DHT22;25589;51.552;13.424;2023-08-07T07:21:14;17.40;99.90
39919;DHT22;25589;51.552;13.424;2023-08-07T07:23:40;17.70;99.90
39919;DHT22;25589;51.552;13.424;2023-08-07T07:26:06;17.50;99.90
39919;DHT22;25589;51.552;13.424;2023-08-07T07:28:31;16.90;99.90
39919;DHT22;25589;51.552;13.424;2023-08-07T07:30:57;17.30;99.90
39919;DHT22;25589;51.552;13.424;2023-08-07T07:35:49;17.40;99.90
39919;DHT22;25589;51.552;13.424;2023-08-07T07:38:14;17.30;99.90
39919;DHT22;25589;51.552;13.424;2023-08-07T07:40:41;17.60;99.90
39919;DHT22;25589;51.552;13.424;2023-08-07T07:43:07;17.50;99.90
39919;DHT22;25589;51.552;13.424;2023-08-07T07:45:33;17.40;99.90
39919;DHT22;25589;51.552;13.424;2023-08-07T07:48:02;17.70;99.90
39919;DHT22;25589;51.552;13.424;2023-08-07T07:50:28;17.40;99.90
39919;DHT22;25589;51.552;13.424;2023-08-07T07:52:54;17.40;99.90
39919;DHT22;25589;51.552;13.424;2023-08-07T07:55:20;17.60;99.90
39919;DHT22;25589;51.552;13.424;2023-08-07T07:57:45;17.80;99.90
39919;DHT22;25589;51.552;13.424;2023-08-07T08:00:12;17.80;99.90
39919;DHT22;25589;51.552;13.424;2023-08-07T08:02:41;17.70;99.90
39919;DHT22;25589;51.552;13.424;2023-08-07T08:05:08;17.90;99.90
39919;DHT22;25589;51.552;13.424;2023-08-07T08:07:36;17.90;99.90
39919;DHT22;25589;51.552;13.424;2023-08-07T08:10:02;17.90;99.90
39919;DHT22;25589;51.552;13.424;2023-08-07T08:12:30;18.10;99.90
39919;DHT22;25589;51.552;13.424;2023-08-07T08:14:56;18.10;99.90
39919;DHT22;25589;51.552;13.424;2023-08-07T08:17:22;18.00;99.90
39919;DHT22;25589;51.552;13.424;2023-08-07T08:19:48;17.90;99.90
39919;DHT22;25589;51.552;13.424;2023-08-07T08:22:14;18.00;99.90
39919;DHT22;25589;51.552;13.424;2023-08-07T08:24:39;18.50;99.90
39919;DHT22;25589;51.552;13.424;2023-08-07T08:27:05;18.10;99.90
39919;DHT22;25589;51.552;13.424;2023-08-07T08:29:30;18.40;99.90
39919;DHT22;25589;51.552;13.424;2023-08-07T08:31:56;18.20;99.90
39919;DHT22;25589;51.552;13.424;2023-08-07T08:34:22;18.60;99.90
39919;DHT22;25589;51.552;13.424;2023-08-07T08:36:48;18.50;99.90
39919;DHT22;25589;51.552;13.424;2023-08-07T08:39:13;18.40;99.90
39919;DHT22;25589;51.552;13.424;2023-08-07T08:41:40;18.20;99.90
39919;DHT22;25589;51.552;13.424;2023-08-07T08:44:09;18.10;99.90
39919;DHT22;25589;51.552;13.424;2023-08-07T08:46:37;18.00;99.90
39919;DHT22;25589;51.552;13.424;2023-08-07T08:49:04;17.90;99.90
39919;DHT22;25589;51.552;13.424;2023-08-07T08:51:31;17.90;99.90
39919;DHT22;25589;51.552;13.424;2023-08-07T08:53:58;18.00;99.90
39919;DHT22;25589;51.552;13.424;2023-08-07T08:56:24;18.10;99.90
39919;DHT22;25589;51.552;13.424;2023-08-07T08:58:50;18.20;99.90
39919;DHT22;25589;51.552;13.424;2023-08-07T09:01:18;18.20;99.90
39919;DHT22;25589;51.552;13.424;2023-08-07T09:03:47;18.20;99.90
39919;DHT22;25589;51.552;13.424;2023-08-07T09:06:13;18.30;99.90
39919;DHT22;25589;51.552;13.424;2023-08-07T09:08:43;18.40;99.90
39919;DHT22;25589;51.552;13.424;2023-08-07T09:11:10;18.30;99.90
39919;DHT22;25589;51.552;13.424;2023-08-07T09:13:37;18.40;99.90
39919;DHT22;25589;51.552;13.424;2023-08-07T09:16:07;18.40;99.90
39919;DHT22;25589;51.552;13.424;2023-08-07T09:18:34;18.20;99.90
39919;DHT22;25589;51.552;13.424;2023-08-07T09:21:00;18.90;99.90
39919;DHT22;25589;51.552;13.424;2023-08-07T09:23:26;18.70;99.90
39919;DHT22;25589;51.552;13.424;2023-08-07T09:26:04;18.70;99.90
39919;DHT22;25589;51.552;13.424;2023-08-07T09:28:32;19.00;99.90
39919;DHT22;25589;51.552;13.424;2023-08-07T09:30:58;19.10;99.90
39919;DHT22;25589;51.552;13.424;2023-08-07T09:33:28;19.20;99.90
39919;DHT22;25589;51.552;13.424;2023-08-07T09:36:01;19.30;99.90
39919;DHT22;25589;51.552;13.424;2023-08-07T09:38:30;19.20;99.90
39919;DHT22;25589;51.552;13.424;2023-08-07T09:41:02;19.10;99.90
39919;DHT22;25589;51.552;13.424;2023-08-07T09:43:29;19.00;99.90
39919;DHT22;25589;51.552;13.424;2023-08-07T09:46:05;18.80;99.90
39919;DHT22;25589;51.552;13.424;2023-08-07T09:48:31;18.90;99.90
39919;DHT22;25589;51.552;13.424;2023-08-07T09:51:03;18.70;99.90
39919;DHT22;25589;51.552;13.424;2023-08-07T09:53:29;18.70;99.90
39919;DHT22;25589;51.552;13.424;2023-08-07T09:55:55;18.40;99.90
39919;DHT22;25589;51.552;13.424;2023-08-07T09:58:21;17.80;99.90
39919;DHT22;25589;51.552;13.424;2023-08-07T10:00:47;17.80;99.90
39919;DHT22;25589;51.552;13.424;2023-08-07T10:03:14;17.60;99.90
39919;DHT22;25589;51.552;13.424;2023-08-07T10:05:41;17.70;99.90
39919;DHT22;25589;51.552;13.424;2023-08-07T10:08:07;17.80;99.90
39919;DHT22;25589;51.552;13.424;2023-08-07T10:10:33;17.90;99.90
39919;DHT22;25589;51.552;13.424;2023-08-07T10:13:01;18.00;99.90
39919;DHT22;25589;51.552;13.424;2023-08-07T10:15:27;18.20;99.90
39919;DHT22;25589;51.552;13.424;2023-08-07T10:17:53;18.30;99.90
39919;DHT22;25589;51.552;13.424;2023-08-07T10:20:20;18.50;99.90
39919;DHT22;25589;51.552;13.424;2023-08-07T10:22:47;18.60;99.90
39919;DHT22;25589;51.552;13.424;2023-08-07T10:25:13;18.60;99.90
39919;DHT22;25589;51.552;13.424;2023-08-07T10:27:40;18.50;99.90
39919;DHT22;25589;51.552;13.424;2023-08-07T10:30:10;18.60;99.90
39919;DHT22;25589;51.552;13.424;2023-08-07T10:32:38;18.90;99.90
39919;DHT22;25589;51.552;13.424;2023-08-07T10:35:05;19.10;99.90
39919;DHT22;25589;51.552;13.424;2023-08-07T10:37:44;19.20;99.90
39919;DHT22;25589;51.552;13.424;2023-08-07T10:40:12;19.50;99.90
39919;DHT22;25589;51.552;13.424;2023-08-07T10:45:27;19.60;99.90
39919;DHT22;25589;51.552;13.424;2023-08-07T10:48:10;19.60;99.90
39919;DHT22;25589;51.552;13.424;2023-08-07T10:50:56;19.80;99.90
39919;DHT22;25589;51.552;13.424;2023-08-07T10:56:05;19.90;99.90
39919;DHT22;25589;51.552;13.424;2023-08-07T10:58:33;20.00;99.90
39919;DHT22;25589;51.552;13.424;2023-08-07T11:03:53;19.70;99.90
39919;DHT22;25589;51.552;13.424;2023-08-07T11:06:24;19.70;99.90
39919;DHT22;25589;51.552;13.424;2023-08-07T11:08:51;19.70;99.90
39919;DHT22;25589;51.552;13.424;2023-08-07T11:11:17;19.70;99.90
39919;DHT22;25589;51.552;13.424;2023-08-07T11:13:43;19.70;99.90
39919;DHT22;25589;51.552;13.424;2023-08-07T11:16:08;19.70;99.90
39919;DHT22;25589;51.552;13.424;2023-08-07T11:18:34;20.10;99.90
39919;DHT22;25589;51.552;13.424;2023-08-07T11:21:01;19.80;99.90
39919;DHT22;25589;51.552;13.424;2023-08-07T11:23:27;19.30;99.90
39919;DHT22;25589;51.552;13.424;2023-08-07T11:25:54;19.60;99.90
39919;DHT22;25589;51.552;13.424;2023-08-07T11:28:20;19.80;99.90
39919;DHT22;25589;51.552;13.424;2023-08-07T11:30:51;19.70;99.90
39919;DHT22;25589;51.552;13.424;2023-08-07T11:33:19;19.70;99.90
39919;DHT22;25589;51.552;13.424;2023-08-07T11:35:49;19.60;99.90
39919;DHT22;25589;51.552;13.424;2023-08-07T11:40:58;19.50;99.90
39919;DHT22;25589;51.552;13.424;2023-08-07T11:43:24;19.40;99.90
39919;DHT22;25589;51.552;13.424;2023-08-07T11:45:50;19.10;99.90
39919;DHT22;25589;51.552;13.424;2023-08-07T11:48:15;19.40;99.90
39919;DHT22;25589;51.552;13.424;2023-08-07T11:50:42;19.10;99.90
39919;DHT22;25589;51.552;13.424;2023-08-07T11:53:08;18.90;99.90
39919;DHT22;25589;51.552;13.424;2023-08-07T11:55:34;18.70;99.90
39919;DHT22;25589;51.552;13.424;2023-08-07T11:58:03;18.90;99.90
39919;DHT22;25589;51.552;13.424;2023-08-07T12:00:28;19.30;99.90
39919;DHT22;25589;51.552;13.424;2023-08-07T12:02:55;19.30;99.90
39919;DHT22;25589;51.552;13.424;2023-08-07T12:05:20;19.00;99.90
39919;DHT22;25589;51.552;13.424;2023-08-07T12:07:47;19.20;99.90
39919;DHT22;25589;51.552;13.424;2023-08-07T12:10:13;19.30;99.90
39919;DHT22;25589;51.552;13.424;2023-08-07T12:12:38;19.60;99.90
39919;DHT22;25589;51.552;13.424;2023-08-07T12:15:08;19.80;99.90
39919;DHT22;25589;51.552;13.424;2023-08-07T12:17:38;19.90;99.90
39919;DHT22;25589;51.552;13.424;2023-08-07T12:20:08;20.10;99.90
39919;DHT22;25589;51.552;13.424;2023-08-07T12:22:36;20.10;99.90
39919;DHT22;25589;51.552;13.424;2023-08-07T12:25:02;20.00;99.90
39919;DHT22;25589;51.552;13.424;2023-08-07T12:27:27;20.00;99.90
39919;DHT22;25589;51.552;13.424;2023-08-07T12:29:53;20.00;99.90
39919;DHT22;25589;51.552;13.424;2023-08-07T12:32:19;20.10;99.90
39919;DHT22;25589;51.552;13.424;2023-08-07T12:34:45;19.80;99.90
39919;DHT22;25589;51.552;13.424;2023-08-07T12:37:10;19.80;99.90
39919;DHT22;25589;51.552;13.424;2023-08-07T12:39:36;20.10;99.90
39919;DHT22;25589;51.552;13.424;2023-08-07T12:42:02;19.70;99.90
39919;DHT22;25589;51.552;13.424;2023-08-07T12:44:29;19.80;99.90
39919;DHT22;25589;51.552;13.424;2023-08-07T12:46:54;19.80;99.90
39919;DHT22;25589;51.552;13.424;2023-08-07T12:49:20;19.80;99.90
39919;DHT22;25589;51.552;13.424;2023-08-07T12:51:46;19.60;99.90
39919;DHT22;25589;51.552;13.424;2023-08-07T12:54:11;19.50;99.90
39919;DHT22;25589;51.552;13.424;2023-08-07T12:56:37;19.40;99.90
39919;DHT22;25589;51.552;13.424;2023-08-07T12:59:02;19.30;99.90
39919;DHT22;25589;51.552;13.424;2023-08-07T13:01:28;18.90;99.90
39919;DHT22;25589;51.552;13.424;2023-08-07T13:03:53;19.10;99.90
39919;DHT22;25589;51.552;13.424;2023-08-07T13:06:20;19.00;99.90
39919;DHT22;25589;51.552;13.424;2023-08-07T13:08:46;19.20;99.90
39919;DHT22;25589;51.552;13.424;2023-08-07T13:11:12;19.00;99.90
39919;DHT22;25589;51.552;13.424;2023-08-07T13:13:37;19.00;99.90
39919;DHT22;25589;51.552;13.424;2023-08-07T13:16:04;19.10;99.90
39919;DHT22;25589;51.552;13.424;2023-08-07T13:18:29;19.20;99.90
39919;DHT22;25589;51.552;13.424;2023-08-07T13:20:56;19.40;99.90
39919;DHT22;25589;51.552;13.424;2023-08-07T13:23:22;19.50;99.90
39919;DHT22;25589;51.552;13.424;2023-08-07T13:25:48;19.40;99.90
39919;DHT22;25589;51.552;13.424;2023-08-07T13:28:13;19.30;99.90
39919;DHT22;25589;51.552;13.424;2023-08-07T13:30:39;19.70;99.90
39919;DHT22;25589;51.552;13.424;2023-08-07T13:33:05;19.80;99.90
39919;DHT22;25589;51.552;13.424;2023-08-07T13:35:30;19.90;99.90
39919;DHT22;25589;51.552;13.424;2023-08-07T13:37:58;19.80;99.90
39919;DHT22;25589;51.552;13.424;2023-08-07T13:40:23;19.80;99.90
39919;DHT22;25589;51.552;13.424;2023-08-07T13:42:49;20.00;99.90
39919;DHT22;25589;51.552;13.424;2023-08-07T13:45:15;19.90;99.90
39919;DHT22;25589;51.552;13.424;2023-08-07T13:47:40;19.90;99.90
39919;DHT22;25589;51.552;13.424;2023-08-07T13:50:07;19.90;99.90
39919;DHT22;25589;51.552;13.424;2023-08-07T13:52:33;20.00;99.90
39919;DHT22;25589;51.552;13.424;2023-08-07T13:54:59;19.70;99.90
39919;DHT22;25589;51.552;13.424;2023-08-07T13:57:25;19.80;99.90
39919;DHT22;25589;51.552;13.424;2023-08-07T13:59:50;20.10;99.90
39919;DHT22;25589;51.552;13.424;2023-08-07T14:02:16;20.20;99.90
39919;DHT22;25589;51.552;13.424;2023-08-07T14:04:41;20.10;99.90
39919;DHT22;25589;51.552;13.424;2023-08-07T14:07:11;20.10;99.90
39919;DHT22;25589;51.552;13.424;2023-08-07T14:09:36;20.00;99.90
39919;DHT22;25589;51.552;13.424;2023-08-07T14:12:03;20.10;99.90
39919;DHT22;25589;51.552;13.424;2023-08-07T14:14:28;20.10;99.90
39919;DHT22;25589;51.552;13.424;2023-08-07T14:16:54;20.30;99.90
39919;DHT22;25589;51.552;13.424;2023-08-07T14:19:23;20.10;99.90
39919;DHT22;25589;51.552;13.424;2023-08-07T14:21:49;20.10;99.90
39919;DHT22;25589;51.552;13.424;2023-08-07T14:24:15;19.80;99.90
39919;DHT22;25589;51.552;13.424;2023-08-07T14:26:42;18.50;99.90
39919;DHT22;25589;51.552;13.424;2023-08-07T14:29:07;19.50;99.90
39919;DHT22;25589;51.552;13.424;2023-08-07T14:31:33;19.40;99.90
39919;DHT22;25589;51.552;13.424;2023-08-07T14:33:59;19.50;99.90
39919;DHT22;25589;51.552;13.424;2023-08-07T14:36:24;19.40;99.90
39919;DHT22;25589;51.552;13.424;2023-08-07T14:38:50;18.90;99.90
39919;DHT22;25589;51.552;13.424;2023-08-07T14:41:18;18.60;99.90
39919;DHT22;25589;51.552;13.424;2023-08-07T14:43:44;18.30;99.90
39919;DHT22;25589;51.552;13.424;2023-08-07T14:46:11;18.50;99.90
39919;DHT22;25589;51.552;13.424;2023-08-07T14:48:36;18.80;99.90
39919;DHT22;25589;51.552;13.424;2023-08-07T14:51:02;18.70;99.90
39919;DHT22;25589;51.552;13.424;2023-08-07T14:55:54;18.50;99.90
39919;DHT22;25589;51.552;13.424;2023-08-07T14:58:20;18.30;99.90
39919;DHT22;25589;51.552;13.424;2023-08-07T15:00:45;17.90;99.90
39919;DHT22;25589;51.552;13.424;2023-08-07T15:03:11;17.90;99.90
39919;DHT22;25589;51.552;13.424;2023-08-07T15:05:37;18.50;99.90
39919;DHT22;25589;51.552;13.424;2023-08-07T15:08:02;18.80;99.90
39919;DHT22;25589;51.552;13.424;2023-08-07T15:10:29;19.10;99.90
39919;DHT22;25589;51.552;13.424;2023-08-07T15:12:55;19.30;99.90
39919;DHT22;25589;51.552;13.424;2023-08-07T15:15:21;19.60;99.90
39919;DHT22;25589;51.552;13.424;2023-08-07T15:17:47;19.60;99.90
39919;DHT22;25589;51.552;13.424;2023-08-07T15:20:12;19.60;99.90
39919;DHT22;25589;51.552;13.424;2023-08-07T15:22:38;19.10;99.90
39919;DHT22;25589;51.552;13.424;2023-08-07T15:25:04;19.00;99.90
39919;DHT22;25589;51.552;13.424;2023-08-07T15:27:29;18.90;99.90
39919;DHT22;25589;51.552;13.424;2023-08-07T15:29:55;19.00;99.90
39919;DHT22;25589;51.552;13.424;2023-08-07T15:32:20;19.40;99.90
39919;DHT22;25589;51.552;13.424;2023-08-07T15:34:46;19.10;99.90
39919;DHT22;25589;51.552;13.424;2023-08-07T15:37:13;18.90;99.90
39919;DHT22;25589;51.552;13.424;2023-08-07T15:39:39;18.50;99.90
39919;DHT22;25589;51.552;13.424;2023-08-07T15:42:05;18.70;99.90
39919;DHT22;25589;51.552;13.424;2023-08-07T15:44:31;18.40;99.90
39919;DHT22;25589;51.552;13.424;2023-08-07T15:46:57;18.40;99.90
39919;DHT22;25589;51.552;13.424;2023-08-07T15:49:22;18.40;99.90
39919;DHT22;25589;51.552;13.424;2023-08-07T15:51:49;18.40;99.90